sensor_id;sensor_type;location;lat;lon;timestamp;pressure;altitude;pressure_sealevel;temperature;humidity
78623;BME280;67943;54.412;9.502;2023-04-01T00:00:05;99459.47;;;9.44;81.21
78623;BME280;67943;54.412;9.502;2023-04-01T00:05:09;99458.03;;;9.35;81.41
78623;BME280;67943;54.412;9.502;2023-04-01T00:10:12;99466.13;;;9.29;81.49
78623;BME280;67943;54.412;9.502;2023-04-01T00:15:13;99468.44;;;9.15;81.83
78623;BME280;67943;54.412;9.502;2023-04-01T00:20:17;99475.72;;;9.07;82.07
78623;BME280;67943;54.412;9.502;2023-04-01T00:25:18;99476.63;;;9.06;81.84
78623;BME280;67943;54.412;9.502;2023-04-01T00:30:20;99481.16;;;9.01;81.50
78623;BME280;67943;54.412;9.502;2023-04-01T00:35:23;99486.66;;;8.95;81.24
78623;BME280;67943;54.412;9.502;2023-04-01T00:40:27;99485.56;;;9.00;80.80
78623;BME280;67943;54.412;9.502;2023-04-01T00:45:35;99492.09;;;8.65;81.27
78623;BME280;67943;54.412;9.502;2023-04-01T00:50:38;99507.09;;;8.60;81.66
78623;BME280;67943;54.412;9.502;2023-04-01T00:55:44;99506.25;;;8.60;81.26
78623;BME280;67943;54.412;9.502;2023-04-01T01:00:47;99503.88;;;8.52;81.09
78623;BME280;67943;54.412;9.502;2023-04-01T01:06:02;99509.47;;;8.41;80.85
78623;BME280;67943;54.412;9.502;2023-04-01T01:11:09;99508.72;;;8.38;80.66
78623;BME280;67943;54.412;9.502;2023-04-01T01:16:16;99525.47;;;8.34;80.79
78623;BME280;67943;54.412;9.502;2023-04-01T01:21:54;99525.91;;;8.19;81.48
78623;BME280;67943;54.412;9.502;2023-04-01T01:27:02;99525.81;;;8.22;80.87
78623;BME280;67943;54.412;9.502;2023-04-01T01:32:12;99540.34;;;8.05;81.09
78623;BME280;67943;54.412;9.502;2023-04-01T01:37:22;99537.19;;;7.94;81.22
78623;BME280;67943;54.412;9.502;2023-04-01T01:42:26;99539.97;;;7.88;81.13
78623;BME280;67943;54.412;9.502;2023-04-01T01:47:29;99545.25;;;7.87;81.23
78623;BME280;67943;54.412;9.502;2023-04-01T01:52:32;99552.59;;;7.75;81.57
78623;BME280;67943;54.412;9.502;2023-04-01T01:57:36;99546.50;;;7.75;81.29
78623;BME280;67943;54.412;9.502;2023-04-01T02:02:39;99557.19;;;7.67;81.07
78623;BME280;67943;54.412;9.502;2023-04-01T02:07:43;99564.38;;;7.61;81.55
78623;BME280;67943;54.412;9.502;2023-04-01T02:12:49;99569.13;;;7.48;81.44
78623;BME280;67943;54.412;9.502;2023-04-01T02:17:52;99590.34;;;7.68;80.45
78623;BME280;67943;54.412;9.502;2023-04-01T02:22:56;99594.50;;;7.44;80.94
78623;BME280;67943;54.412;9.502;2023-04-01T02:28:00;99592.84;;;7.42;80.62
78623;BME280;67943;54.412;9.502;2023-04-01T02:33:03;99603.75;;;7.25;80.98
78623;BME280;67943;54.412;9.502;2023-04-01T02:38:06;99601.94;;;7.27;80.83
78623;BME280;67943;54.412;9.502;2023-04-01T02:43:08;99610.53;;;7.32;79.65
78623;BME280;67943;54.412;9.502;2023-04-01T02:48:10;99621.44;;;7.17;80.45
78623;BME280;67943;54.412;9.502;2023-04-01T02:53:14;99633.88;;;7.07;79.76
78623;BME280;67943;54.412;9.502;2023-04-01T02:58:15;99637.50;;;7.02;79.76
78623;BME280;67943;54.412;9.502;2023-04-01T03:03:17;99646.50;;;6.92;79.58
78623;BME280;67943;54.412;9.502;2023-04-01T03:08:20;99643.06;;;6.90;79.57
78623;BME280;67943;54.412;9.502;2023-04-01T03:13:21;99653.09;;;6.71;80.12
78623;BME280;67943;54.412;9.502;2023-04-01T03:18:23;99659.13;;;6.74;79.68
78623;BME280;67943;54.412;9.502;2023-04-01T03:23:25;99670.41;;;6.76;79.36
78623;BME280;67943;54.412;9.502;2023-04-01T03:28:27;99664.84;;;6.53;79.47
78623;BME280;67943;54.412;9.502;2023-04-01T03:33:28;99672.78;;;6.49;80.00
78623;BME280;67943;54.412;9.502;2023-04-01T03:38:31;99687.34;;;6.60;79.33
78623;BME280;67943;54.412;9.502;2023-04-01T03:43:33;99687.69;;;6.45;78.98
78623;BME280;67943;54.412;9.502;2023-04-01T03:48:34;99701.75;;;6.38;79.27
78623;BME280;67943;54.412;9.502;2023-04-01T03:53:37;99709.00;;;6.27;79.88
78623;BME280;67943;54.412;9.502;2023-04-01T03:58:39;99713.75;;;6.48;78.85
78623;BME280;67943;54.412;9.502;2023-04-01T04:03:40;99715.94;;;6.28;79.39
78623;BME280;67943;54.412;9.502;2023-04-01T04:08:43;99730.06;;;6.18;79.33
78623;BME280;67943;54.412;9.502;2023-04-01T04:13:45;99732.25;;;5.97;80.39
78623;BME280;67943;54.412;9.502;2023-04-01T04:18:47;99738.03;;;6.12;80.48
78623;BME280;67943;54.412;9.502;2023-04-01T04:23:50;99755.63;;;6.03;80.50
78623;BME280;67943;54.412;9.502;2023-04-01T04:28:53;99757.34;;;6.04;79.87
78623;BME280;67943;54.412;9.502;2023-04-01T04:33:55;99754.81;;;6.00;80.06
78623;BME280;67943;54.412;9.502;2023-04-01T04:38:58;99768.91;;;5.91;80.11
78623;BME280;67943;54.412;9.502;2023-04-01T04:44:02;99767.00;;;5.99;80.11
78623;BME280;67943;54.412;9.502;2023-04-01T04:49:03;99793.78;;;6.09;79.49
78623;BME280;67943;54.412;9.502;2023-04-01T04:54:06;99793.19;;;5.96;79.38
78623;BME280;67943;54.412;9.502;2023-04-01T04:59:08;99801.34;;;5.76;79.91
78623;BME280;67943;54.412;9.502;2023-04-01T05:04:09;99798.56;;;5.86;78.97
78623;BME280;67943;54.412;9.502;2023-04-01T05:09:12;99809.84;;;5.86;78.68
78623;BME280;67943;54.412;9.502;2023-04-01T05:14:14;99825.03;;;5.66;79.77
78623;BME280;67943;54.412;9.502;2023-04-01T05:19:16;99817.16;;;5.69;79.72
78623;BME280;67943;54.412;9.502;2023-04-01T05:24:19;99829.41;;;5.64;80.09
78623;BME280;67943;54.412;9.502;2023-04-01T05:29:20;99831.88;;;5.73;79.75
78623;BME280;67943;54.412;9.502;2023-04-01T05:34:22;99843.97;;;5.77;79.96
78623;BME280;67943;54.412;9.502;2023-04-01T05:39:25;99848.28;;;5.78;79.61
78623;BME280;67943;54.412;9.502;2023-04-01T05:44:26;99863.00;;;5.82;79.52
78623;BME280;67943;54.412;9.502;2023-04-01T05:49:27;99859.72;;;5.71;80.35
78623;BME280;67943;54.412;9.502;2023-04-01T05:54:30;99874.50;;;5.73;80.13
78623;BME280;67943;54.412;9.502;2023-04-01T05:59:32;99872.00;;;5.66;81.05
78623;BME280;67943;54.412;9.502;2023-04-01T06:04:38;99884.94;;;5.72;81.04
78623;BME280;67943;54.412;9.502;2023-04-01T06:09:42;99891.88;;;5.74;79.73
78623;BME280;67943;54.412;9.502;2023-04-01T06:14:51;99895.47;;;5.67;80.68
78623;BME280;67943;54.412;9.502;2023-04-01T06:20:03;99899.63;;;5.77;80.24
78623;BME280;67943;54.412;9.502;2023-04-01T06:25:18;99905.81;;;5.72;80.10
78623;BME280;67943;54.412;9.502;2023-04-01T06:30:41;99919.06;;;5.60;81.21
78623;BME280;67943;54.412;9.502;2023-04-01T06:36:06;99929.41;;;5.66;81.00
78623;BME280;67943;54.412;9.502;2023-04-01T06:41:26;99939.75;;;5.72;81.30
78623;BME280;67943;54.412;9.502;2023-04-01T06:46:37;99939.53;;;5.86;80.86
78623;BME280;67943;54.412;9.502;2023-04-01T06:51:51;99950.22;;;5.70;80.76
78623;BME280;67943;54.412;9.502;2023-04-01T06:56:58;99962.34;;;5.74;81.12
78623;BME280;67943;54.412;9.502;2023-04-01T07:02:09;99967.63;;;5.70;81.18
78623;BME280;67943;54.412;9.502;2023-04-01T07:07:21;99976.16;;;5.80;80.57
78623;BME280;67943;54.412;9.502;2023-04-01T07:12:33;99980.50;;;5.79;80.21
78623;BME280;67943;54.412;9.502;2023-04-01T07:17:39;99985.09;;;5.65;81.09
78623;BME280;67943;54.412;9.502;2023-04-01T07:22:44;99986.72;;;5.72;81.04
78623;BME280;67943;54.412;9.502;2023-04-01T07:27:48;100006.56;;;5.82;79.92
78623;BME280;67943;54.412;9.502;2023-04-01T07:32:56;100018.19;;;5.61;81.13
78623;BME280;67943;54.412;9.502;2023-04-01T07:38:10;100027.50;;;5.79;80.76
78623;BME280;67943;54.412;9.502;2023-04-01T07:43:41;100037.91;;;5.81;80.25
78623;BME280;67943;54.412;9.502;2023-04-01T07:48:48;100039.66;;;5.80;79.91
78623;BME280;67943;54.412;9.502;2023-04-01T07:53:59;100048.34;;;5.82;80.48
78623;BME280;67943;54.412;9.502;2023-04-01T07:59:12;100063.03;;;5.92;80.17
78623;BME280;67943;54.412;9.502;2023-04-01T08:04:27;100070.03;;;5.89;79.80
78623;BME280;67943;54.412;9.502;2023-04-01T08:09:36;100077.84;;;5.87;79.83
78623;BME280;67943;54.412;9.502;2023-04-01T08:14:52;100088.22;;;5.96;79.89
78623;BME280;67943;54.412;9.502;2023-04-01T08:20:08;100092.34;;;6.09;79.41
78623;BME280;67943;54.412;9.502;2023-04-01T08:25:17;100108.28;;;5.91;78.87
78623;BME280;67943;54.412;9.502;2023-04-01T08:30:24;100104.81;;;5.92;79.67
78623;BME280;67943;54.412;9.502;2023-04-01T08:35:29;100117.72;;;6.03;78.67
78623;BME280;67943;54.412;9.502;2023-04-01T08:40:58;100120.47;;;5.92;78.80
78623;BME280;67943;54.412;9.502;2023-04-01T08:46:13;100128.34;;;5.89;79.02
78623;BME280;67943;54.412;9.502;2023-04-01T08:51:48;100138.78;;;5.89;78.97
78623;BME280;67943;54.412;9.502;2023-04-01T08:57:00;100143.09;;;5.93;78.79
78623;BME280;67943;54.412;9.502;2023-04-01T09:02:26;100143.03;;;5.96;78.04
78623;BME280;67943;54.412;9.502;2023-04-01T09:07:40;100162.28;;;5.89;78.84
78623;BME280;67943;54.412;9.502;2023-04-01T09:12:55;100179.56;;;5.99;78.36
78623;BME280;67943;54.412;9.502;2023-04-01T09:18:13;100166.81;;;5.72;78.57
78623;BME280;67943;54.412;9.502;2023-04-01T09:23:29;100176.19;;;5.91;78.26
78623;BME280;67943;54.412;9.502;2023-04-01T09:28:42;100197.09;;;5.85;78.68
78623;BME280;67943;54.412;9.502;2023-04-01T09:34:26;100196.31;;;5.78;78.45
78623;BME280;67943;54.412;9.502;2023-04-01T09:39:36;100214.66;;;5.74;78.43
78623;BME280;67943;54.412;9.502;2023-04-01T09:44:44;100227.75;;;5.69;78.35
78623;BME280;67943;54.412;9.502;2023-04-01T09:50:13;100234.84;;;5.54;78.47
78623;BME280;67943;54.412;9.502;2023-04-01T09:55:37;100247.84;;;5.60;78.28
78623;BME280;67943;54.412;9.502;2023-04-01T10:06:57;100258.28;;;5.60;77.45
78623;BME280;67943;54.412;9.502;2023-04-01T10:23:27;100283.53;;;5.59;78.27
78623;BME280;67943;54.412;9.502;2023-04-01T10:29:00;100284.41;;;5.58;77.61
78623;BME280;67943;54.412;9.502;2023-04-01T10:51:32;100323.75;;;5.34;77.82
78623;BME280;67943;54.412;9.502;2023-04-01T10:56:44;100324.66;;;5.28;77.26
78623;BME280;67943;54.412;9.502;2023-04-01T11:07:51;100336.78;;;5.34;76.67
78623;BME280;67943;54.412;9.502;2023-04-01T11:13:26;100354.25;;;5.24;76.80
78623;BME280;67943;54.412;9.502;2023-04-01T11:24:25;100366.41;;;5.28;76.75
78623;BME280;67943;54.412;9.502;2023-04-01T11:29:43;100382.91;;;5.29;76.56
78623;BME280;67943;54.412;9.502;2023-04-01T11:35:19;100383.78;;;5.26;76.21
78623;BME280;67943;54.412;9.502;2023-04-01T11:40:29;100389.00;;;5.29;76.37
78623;BME280;67943;54.412;9.502;2023-04-01T11:45:38;100401.16;;;5.29;76.05
78623;BME280;67943;54.412;9.502;2023-04-01T11:50:53;100406.47;;;5.18;75.45
78623;BME280;67943;54.412;9.502;2023-04-01T11:56:09;100424.72;;;5.20;76.16
78623;BME280;67943;54.412;9.502;2023-04-01T12:01:27;100429.91;;;5.23;74.66
78623;BME280;67943;54.412;9.502;2023-04-01T12:06:38;100441.16;;;5.29;74.58
78623;BME280;67943;54.412;9.502;2023-04-01T12:11:51;100436.06;;;5.14;75.39
78623;BME280;67943;54.412;9.502;2023-04-01T12:17:04;100457.69;;;5.31;74.42
78623;BME280;67943;54.412;9.502;2023-04-01T12:22:27;100460.25;;;5.40;73.79
78623;BME280;67943;54.412;9.502;2023-04-01T12:27:41;100477.66;;;5.32;74.67
78623;BME280;67943;54.412;9.502;2023-04-01T12:32:51;100479.38;;;5.42;74.25
78623;BME280;67943;54.412;9.502;2023-04-01T12:38:15;100481.78;;;5.73;72.46
78623;BME280;67943;54.412;9.502;2023-04-01T12:43:43;100486.06;;;5.78;71.79
78623;BME280;67943;54.412;9.502;2023-04-01T12:49:21;100494.72;;;5.85;71.94
78623;BME280;67943;54.412;9.502;2023-04-01T13:00:12;100501.69;;;5.86;71.95
78623;BME280;67943;54.412;9.502;2023-04-01T13:05:42;100520.84;;;5.85;70.56
78623;BME280;67943;54.412;9.502;2023-04-01T13:11:04;100526.97;;;5.78;70.42
78623;BME280;67943;54.412;9.502;2023-04-01T13:16:11;100538.41;;;5.59;72.00
78623;BME280;67943;54.412;9.502;2023-04-01T13:21:21;100541.91;;;5.53;72.09
78623;BME280;67943;54.412;9.502;2023-04-01T13:26:31;100543.69;;;5.48;72.12
78623;BME280;67943;54.412;9.502;2023-04-01T13:31:47;100552.34;;;5.56;72.09
78623;BME280;67943;54.412;9.502;2023-04-01T13:37:02;100554.06;;;5.62;71.12
78623;BME280;67943;54.412;9.502;2023-04-01T13:42:14;100574.94;;;5.59;70.87
78623;BME280;67943;54.412;9.502;2023-04-01T13:47:33;100568.00;;;5.52;70.54
78623;BME280;67943;54.412;9.502;2023-04-01T13:53:04;100593.31;;;5.39;71.30
78623;BME280;67943;54.412;9.502;2023-04-01T13:58:23;100588.84;;;5.61;70.12
78623;BME280;67943;54.412;9.502;2023-04-01T14:03:38;100597.69;;;5.29;70.96
78623;BME280;67943;54.412;9.502;2023-04-01T14:09:14;100614.16;;;5.47;70.26
78623;BME280;67943;54.412;9.502;2023-04-01T14:14:23;100617.66;;;5.39;70.66
78623;BME280;67943;54.412;9.502;2023-04-01T14:25:17;100637.66;;;5.43;70.07
78623;BME280;67943;54.412;9.502;2023-04-01T14:30:37;100653.28;;;5.48;69.08
78623;BME280;67943;54.412;9.502;2023-04-01T14:35:48;100659.34;;;5.55;68.27
78623;BME280;67943;54.412;9.502;2023-04-01T14:40:56;100666.34;;;5.48;68.22
78623;BME280;67943;54.412;9.502;2023-04-01T14:46:11;100662.88;;;5.48;68.85
78623;BME280;67943;54.412;9.502;2023-04-01T14:51:16;100682.84;;;5.52;67.04
78623;BME280;67943;54.412;9.502;2023-04-01T15:01:58;100695.91;;;5.46;67.35
78623;BME280;67943;54.412;9.502;2023-04-01T15:07:10;100696.78;;;5.48;67.50
78623;BME280;67943;54.412;9.502;2023-04-01T15:12:23;100698.47;;;5.59;67.01
78623;BME280;67943;54.412;9.502;2023-04-01T15:17:38;100706.22;;;5.84;66.07
78623;BME280;67943;54.412;9.502;2023-04-01T15:22:53;100724.38;;;6.20;65.58
78623;BME280;67943;54.412;9.502;2023-04-01T15:28:03;100733.91;;;6.33;64.65
78623;BME280;67943;54.412;9.502;2023-04-01T15:33:22;100754.56;;;6.74;64.07
78623;BME280;67943;54.412;9.502;2023-04-01T15:38:33;100742.25;;;6.92;61.40
78623;BME280;67943;54.412;9.502;2023-04-01T15:43:41;100751.00;;;6.83;61.65
78623;BME280;67943;54.412;9.502;2023-04-01T15:48:55;100751.69;;;7.09;60.30
78623;BME280;67943;54.412;9.502;2023-04-01T15:54:40;100765.69;;;6.99;60.04
78623;BME280;67943;54.412;9.502;2023-04-01T16:00:02;100777.88;;;7.05;60.25
78623;BME280;67943;54.412;9.502;2023-04-01T16:05:16;100785.00;;;6.88;59.63
78623;BME280;67943;54.412;9.502;2023-04-01T16:10:35;100799.84;;;6.83;59.63
78623;BME280;67943;54.412;9.502;2023-04-01T16:15:44;100809.38;;;6.90;59.75
78623;BME280;67943;54.412;9.502;2023-04-01T16:20:53;100804.19;;;6.84;58.75
78623;BME280;67943;54.412;9.502;2023-04-01T16:26:03;100822.56;;;6.70;59.70
78623;BME280;67943;54.412;9.502;2023-04-01T16:31:09;100834.78;;;6.65;59.31
78623;BME280;67943;54.412;9.502;2023-04-01T16:36:23;100839.22;;;6.52;59.95
78623;BME280;67943;54.412;9.502;2023-04-01T16:41:30;100848.03;;;6.21;59.28
78623;BME280;67943;54.412;9.502;2023-04-01T16:46:34;100861.97;;;6.21;59.04
78623;BME280;67943;54.412;9.502;2023-04-01T16:51:46;100868.09;;;5.77;60.70
78623;BME280;67943;54.412;9.502;2023-04-01T16:56:54;100877.69;;;5.85;59.55
78623;BME280;67943;54.412;9.502;2023-04-01T17:02:02;100896.84;;;5.73;58.71
78623;BME280;67943;54.412;9.502;2023-04-01T17:07:21;100903.78;;;5.50;59.59
78623;BME280;67943;54.412;9.502;2023-04-01T17:12:28;100909.88;;;5.39;58.98
78623;BME280;67943;54.412;9.502;2023-04-01T17:17:40;100919.44;;;5.31;59.13
78623;BME280;67943;54.412;9.502;2023-04-01T17:22:51;100943.75;;;5.14;58.80
78623;BME280;67943;54.412;9.502;2023-04-01T17:27:59;100950.66;;;5.05;58.92
78623;BME280;67943;54.412;9.502;2023-04-01T17:33:23;100967.13;;;4.97;57.71
78623;BME280;67943;54.412;9.502;2023-04-01T17:38:54;100971.47;;;4.89;57.59
78623;BME280;67943;54.412;9.502;2023-04-01T17:44:09;100992.19;;;4.66;58.70
78623;BME280;67943;54.412;9.502;2023-04-01T17:49:24;100993.91;;;4.64;58.13
78623;BME280;67943;54.412;9.502;2023-04-01T17:54:34;101010.50;;;4.77;58.50
78623;BME280;67943;54.412;9.502;2023-04-01T17:59:45;101027.66;;;4.43;58.70
78623;BME280;67943;54.412;9.502;2023-04-01T18:05:03;101035.41;;;4.32;58.64
78623;BME280;67943;54.412;9.502;2023-04-01T18:10:25;101033.69;;;4.32;58.00
78623;BME280;67943;54.412;9.502;2023-04-01T18:15:31;101054.53;;;4.32;57.10
78623;BME280;67943;54.412;9.502;2023-04-01T18:20:42;101073.50;;;4.18;57.97
78623;BME280;67943;54.412;9.502;2023-04-01T18:25:49;101071.63;;;4.01;56.12
78623;BME280;67943;54.412;9.502;2023-04-01T18:30:57;101082.91;;;4.02;56.48
78623;BME280;67943;54.412;9.502;2023-04-01T18:36:15;101090.72;;;4.03;55.67
78623;BME280;67943;54.412;9.502;2023-04-01T18:41:26;101108.00;;;3.95;54.85
78623;BME280;67943;54.412;9.502;2023-04-01T18:46:31;101113.13;;;3.88;55.15
78623;BME280;67943;54.412;9.502;2023-04-01T18:51:41;101129.47;;;3.76;56.15
78623;BME280;67943;54.412;9.502;2023-04-01T18:56:47;101149.47;;;3.82;57.30
78623;BME280;67943;54.412;9.502;2023-04-01T19:01:55;101135.59;;;3.81;57.58
78623;BME280;67943;54.412;9.502;2023-04-01T19:07:23;101150.22;;;3.70;58.11
78623;BME280;67943;54.412;9.502;2023-04-01T19:12:38;101159.59;;;3.56;58.96
78623;BME280;67943;54.412;9.502;2023-04-01T19:17:54;101168.38;;;3.64;59.03
78623;BME280;67943;54.412;9.502;2023-04-01T19:23:31;101169.94;;;3.53;59.78
78623;BME280;67943;54.412;9.502;2023-04-01T19:28:47;101198.50;;;3.48;60.45
78623;BME280;67943;54.412;9.502;2023-04-01T19:34:05;101204.44;;;3.36;61.67
78623;BME280;67943;54.412;9.502;2023-04-01T19:39:24;101210.72;;;3.54;61.72
78623;BME280;67943;54.412;9.502;2023-04-01T19:44:36;101214.94;;;3.43;62.46
78623;BME280;67943;54.412;9.502;2023-04-01T19:49:50;101228.63;;;3.32;63.34
78623;BME280;67943;54.412;9.502;2023-04-01T19:54:57;101230.34;;;3.30;63.30
78623;BME280;67943;54.412;9.502;2023-04-01T20:00:07;101235.50;;;3.27;63.22
78623;BME280;67943;54.412;9.502;2023-04-01T20:05:37;101251.97;;;3.28;63.73
78623;BME280;67943;54.412;9.502;2023-04-01T20:10:47;101263.41;;;3.37;63.11
78623;BME280;67943;54.412;9.502;2023-04-01T20:16:01;101276.28;;;3.30;63.38
78623;BME280;67943;54.412;9.502;2023-04-01T20:21:06;101281.38;;;3.24;63.79
78623;BME280;67943;54.412;9.502;2023-04-01T20:26:21;101296.09;;;3.23;63.87
78623;BME280;67943;54.412;9.502;2023-04-01T20:31:29;101308.19;;;3.21;64.30
78623;BME280;67943;54.412;9.502;2023-04-01T20:36:36;101304.69;;;3.16;63.58
78623;BME280;67943;54.412;9.502;2023-04-01T20:41:54;101309.09;;;3.23;63.27
78623;BME280;67943;54.412;9.502;2023-04-01T20:47:04;101318.56;;;3.20;63.23
78623;BME280;67943;54.412;9.502;2023-04-01T20:52:23;101332.50;;;3.23;62.76
78623;BME280;67943;54.412;9.502;2023-04-01T20:57:31;101332.38;;;3.14;62.92
78623;BME280;67943;54.412;9.502;2023-04-01T21:02:48;101345.41;;;3.16;62.75
78623;BME280;67943;54.412;9.502;2023-04-01T21:07:57;101354.88;;;3.12;62.91
78623;BME280;67943;54.412;9.502;2023-04-01T21:13:12;101371.41;;;3.16;62.28
78623;BME280;67943;54.412;9.502;2023-04-01T21:18:28;101372.09;;;3.07;62.85
78623;BME280;67943;54.412;9.502;2023-04-01T21:23:56;101378.88;;;2.99;63.31
78623;BME280;67943;54.412;9.502;2023-04-01T21:29:18;101396.34;;;3.06;62.81
78623;BME280;67943;54.412;9.502;2023-04-01T21:34:42;101407.63;;;3.07;63.13
78623;BME280;67943;54.412;9.502;2023-04-01T21:40:09;101412.91;;;3.11;62.93
78623;BME280;67943;54.412;9.502;2023-04-01T21:45:25;101421.56;;;3.10;62.51
78623;BME280;67943;54.412;9.502;2023-04-01T21:50:43;101434.44;;;3.04;62.49
78623;BME280;67943;54.412;9.502;2023-04-01T21:56:08;101449.97;;;3.01;62.33
78623;BME280;67943;54.412;9.502;2023-04-01T22:01:24;101454.41;;;3.05;62.18
78623;BME280;67943;54.412;9.502;2023-04-01T22:06:34;101455.19;;;3.01;62.37
78623;BME280;67943;54.412;9.502;2023-04-01T22:11:53;101469.88;;;2.99;62.78
78623;BME280;67943;54.412;9.502;2023-04-01T22:17:06;101480.16;;;2.94;63.51
78623;BME280;67943;54.412;9.502;2023-04-01T22:22:18;101476.72;;;2.95;63.55
78623;BME280;67943;54.412;9.502;2023-04-01T22:27:26;101480.38;;;3.03;63.80
78623;BME280;67943;54.412;9.502;2023-04-01T22:32:36;101481.03;;;2.95;63.55
78623;BME280;67943;54.412;9.502;2023-04-01T22:37:46;101495.88;;;2.99;63.68
78623;BME280;67943;54.412;9.502;2023-04-01T22:42:57;101507.06;;;2.96;63.49
78623;BME280;67943;54.412;9.502;2023-04-01T22:48:05;101508.66;;;2.90;63.63
78623;BME280;67943;54.412;9.502;2023-04-01T22:53:36;101514.69;;;2.89;64.28
78623;BME280;67943;54.412;9.502;2023-04-01T22:58:42;101529.53;;;2.93;64.49
78623;BME280;67943;54.412;9.502;2023-04-01T23:03:49;101545.91;;;2.89;64.37
78623;BME280;67943;54.412;9.502;2023-04-01T23:08:58;101550.22;;;2.87;64.51
78623;BME280;67943;54.412;9.502;2023-04-01T23:14:24;101550.88;;;2.78;64.95
78623;BME280;67943;54.412;9.502;2023-04-01T23:19:35;101554.25;;;2.74;65.55
78623;BME280;67943;54.412;9.502;2023-04-01T23:24:43;101574.16;;;2.74;65.80
78623;BME280;67943;54.412;9.502;2023-04-01T23:29:48;101580.97;;;2.68;66.01
78623;BME280;67943;54.412;9.502;2023-04-01T23:34:51;101592.97;;;2.63;66.00
78623;BME280;67943;54.412;9.502;2023-04-01T23:39:56;101594.59;;;2.58;66.78
78623;BME280;67943;54.412;9.502;2023-04-01T23:45:00;101599.81;;;2.58;66.76
78623;BME280;67943;54.412;9.502;2023-04-01T23:50:05;101616.13;;;2.53;66.83
78623;BME280;67943;54.412;9.502;2023-04-01T23:55:16;101619.00;;;2.65;66.47
